Copas, Minnesota
Current Conditions -  °F | °C
As of 3:35 AM on Wednesday 22 Oct 2014 (Local Time) from KOEO Reporting Station
Clear Clear  
Wind Chill: 36°   Ceiling: Unl
Heat Index: 41°   Visibility: 10mi
Dew Point: 37°   Wind: 8mph
Humidity: 83%   Direction: 150°SSE
Pressure: 30.24"   Gusts: NA
Location:  45.2742°N, 92.8215°W
Report Text: KOEO 220835Z AUTO 15007KT 10SM CLR 05/03 A3024 RMK AO2 T00520025
Loading
Personal Weather Stations






























Interactive Weather Map
Tropical Storm Tracking
New forecast layout! Learn more

10-Day Weather Forecast

Advertisements
Track Severe Weather on mobile